Time;durP1;ratioP1;P1;durP2;ratioP2;P2;SDS_P1;SDS_P2;PMS_P1;PMS_P2;Temp;Humidity;BMP_temperature;BMP_pressure;BME280_temperature;BME280_humidity;BME280_pressure;Samples;Min_cycle;Max_cycle;Signal;HPM_P1;HPM_P2
2023/03/01 00:02:06;;;;;;;;;;;;;;;-4.35;82.02;97775.53;109095;1268;37422;-84
2023/03/01 00:04:36;;;;;;;;;;;;;;;-4.36;81.92;97771.95;109073;1269;23767;-84
2023/03/01 00:07:05;;;;;;;;;;;;;;;-4.39;82.02;97776.76;109062;1273;22518;-83
2023/03/01 00:09:34;;;;;;;;;;;;;;;-4.41;81.97;97779.56;109087;1269;23874;-84
2023/03/01 00:12:04;;;;;;;;;;;;;;;-4.41;81.93;97776.65;109037;1268;47956;-84
2023/03/01 00:14:33;;;;;;;;;;;;;;;-4.43;81.80;97777.48;109131;1266;23831;-83
2023/03/01 00:17:03;;;;;;;;;;;;;;;-4.44;81.59;97781.76;109074;1273;22679;-84
2023/03/01 00:19:32;;;;;;;;;;;;;;;-4.44;81.60;97781.56;109075;1273;22917;-84
2023/03/01 00:22:02;;;;;;;;;;;;;;;-4.42;81.74;97779.11;109026;1273;55395;-84
2023/03/01 00:24:31;;;;;;;;;;;;;;;-4.37;81.79;97773.45;109110;1269;22496;-83
2023/03/01 00:27:00;;;;;;;;;;;;;;;-4.37;81.74;97776.67;109076;1271;23815;-83
2023/03/01 00:29:30;;;;;;;;;;;;;;;-4.44;81.58;97775.35;109091;1273;22532;-83
2023/03/01 00:32:00;;;;;;;;;;;;;;;-4.53;81.77;97778.02;109090;1269;27322;-83
2023/03/01 00:34:29;;;;;;;;;;;;;;;-4.58;82.06;97780.27;109101;1271;22488;-83
2023/03/01 00:37:04;;;;;;;;;;;;;;;-4.61;82.31;97777.15;109078;1270;22469;-83
2023/03/01 00:39:34;;;;;;;;;;;;;;;-4.61;82.54;97778.48;109095;1270;22712;-83
2023/03/01 00:42:04;;;;;;;;;;;;;;;-4.64;82.51;97773.21;109039;1266;53861;-83
2023/03/01 00:44:34;;;;;;;;;;;;;;;-4.68;82.56;97771.77;109086;1269;23889;-83
2023/03/01 00:47:03;;;;;;;;;;;;;;;-4.69;82.80;97769.82;109138;1269;22518;-83
2023/03/01 00:49:33;;;;;;;;;;;;;;;-4.66;83.00;97769.19;109048;1274;23172;-84
2023/03/01 00:52:02;;;;;;;;;;;;;;;-4.64;83.03;97762.72;109056;1274;43886;-83
2023/03/01 00:54:31;;;;;;;;;;;;;;;-4.67;83.00;97758.32;109100;1268;22488;-83
2023/03/01 00:57:01;;;;;;;;;;;;;;;-4.74;82.97;97757.20;109055;1274;22497;-83
2023/03/01 00:59:30;;;;;;;;;;;;;;;-4.80;82.98;97755.34;109061;1269;22469;-84
2023/03/01 01:02:00;;;;;;;;;;;;;;;-4.83;83.17;97758.40;109074;1274;40103;-83
2023/03/01 01:04:29;;;;;;;;;;;;;;;-4.84;83.50;97755.02;109092;1273;22493;-83
2023/03/01 01:06:58;;;;;;;;;;;;;;;-4.79;83.89;97751.66;109105;1273;23893;-83
2023/03/01 01:09:28;;;;;;;;;;;;;;;-4.74;84.06;97747.68;109066;1274;24869;-83
2023/03/01 01:11:57;;;;;;;;;;;;;;;-4.72;84.17;97744.20;109046;1274;49335;-84
2023/03/01 01:14:27;;;;;;;;;;;;;;;-4.78;83.94;97741.20;109104;1272;24021;-83
2023/03/01 01:16:56;;;;;;;;;;;;;;;-4.92;83.82;97738.11;109113;1271;22508;-83
2023/03/01 01:19:26;;;;;;;;;;;;;;;-5.03;83.93;97736.46;109143;1273;24327;-84
2023/03/01 01:21:55;;;;;;;;;;;;;;;-5.04;84.19;97738.44;109076;1274;38796;-83
2023/03/01 01:24:25;;;;;;;;;;;;;;;-4.98;84.51;97740.75;109082;1274;24285;-83
2023/03/01 01:26:54;;;;;;;;;;;;;;;-4.91;84.57;97738.84;109097;1274;23382;-83
2023/03/01 01:29:24;;;;;;;;;;;;;;;-4.87;84.29;97741.08;109106;1269;22503;-84
2023/03/01 01:31:54;;;;;;;;;;;;;;;-4.85;84.30;97738.80;109043;1272;34876;-83
2023/03/01 01:34:23;;;;;;;;;;;;;;;-4.90;84.02;97737.09;109121;1269;24203;-83
2023/03/01 01:36:54;;;;;;;;;;;;;;;-5.08;83.59;97737.14;109074;1274;24380;-83
2023/03/01 01:39:23;;;;;;;;;;;;;;;-5.19;84.02;97732.71;109101;1266;24144;-83
2023/03/01 01:41:53;;;;;;;;;;;;;;;-5.24;84.42;97727.04;109057;1266;58018;-83
2023/03/01 01:44:23;;;;;;;;;;;;;;;-5.23;84.75;97725.04;109009;1272;25255;-83
2023/03/01 01:46:55;;;;;;;;;;;;;;;-5.13;85.28;97715.84;109094;1271;22488;-83
2023/03/01 01:49:26;;;;;;;;;;;;;;;-5.03;85.64;97706.95;109080;1266;24241;-83
2023/03/01 01:51:59;;;;;;;;;;;;;;;-4.98;85.50;97709.43;109075;1274;22493;-84
2023/03/01 01:54:31;;;;;;;;;;;;;;;-4.94;85.48;97705.95;109102;1274;22512;-83
2023/03/01 01:57:03;;;;;;;;;;;;;;;-4.88;85.44;97699.15;109079;1272;22534;-84
2023/03/01 01:59:33;;;;;;;;;;;;;;;-4.83;85.71;97694.09;109079;1274;23175;-84
2023/03/01 02:02:04;;;;;;;;;;;;;;;-4.78;85.89;97698.27;109081;1274;22522;-84
2023/03/01 02:04:34;;;;;;;;;;;;;;;-4.71;85.73;97706.76;109095;1266;22490;-84
2023/03/01 02:07:08;;;;;;;;;;;;;;;-4.68;85.74;97707.95;109076;1273;22986;-84
2023/03/01 02:09:37;;;;;;;;;;;;;;;-4.68;85.33;97708.93;109086;1274;22481;-84
2023/03/01 02:12:07;;;;;;;;;;;;;;;-4.70;85.05;97706.24;109091;1273;24202;-84
2023/03/01 02:14:36;;;;;;;;;;;;;;;-4.76;84.97;97705.70;109115;1267;22499;-84
2023/03/01 02:17:05;;;;;;;;;;;;;;;-4.84;85.08;97697.48;109091;1267;22835;-84
2023/03/01 02:19:41;;;;;;;;;;;;;;;-4.89;85.09;97702.32;109065;1274;22483;-84
2023/03/01 02:22:19;;;;;;;;;;;;;;;-4.92;85.26;97703.98;109039;1269;39016;-84
2023/03/01 02:24:54;;;;;;;;;;;;;;;-4.86;85.62;97695.44;109095;1273;23850;-84
2023/03/01 02:27:25;;;;;;;;;;;;;;;-4.79;85.80;97697.31;109069;1272;24245;-84
2023/03/01 02:29:55;;;;;;;;;;;;;;;-4.73;85.63;97697.58;109083;1264;22631;-84
2023/03/01 02:32:24;;;;;;;;;;;;;;;-4.69;85.52;97699.04;109090;1271;22527;-84
2023/03/01 02:34:54;;;;;;;;;;;;;;;-4.69;85.12;97700.48;109081;1272;22489;-84
2023/03/01 02:37:25;;;;;;;;;;;;;;;-4.71;85.00;97699.94;109103;1274;25393;-84
2023/03/01 02:39:58;;;;;;;;;;;;;;;-4.76;84.80;97697.08;109066;1271;22485;-84
2023/03/01 02:42:31;;;;;;;;;;;;;;;-4.84;84.84;97690.75;109044;1266;22504;-84
2023/03/01 02:45:00;;;;;;;;;;;;;;;-4.86;85.20;97691.62;109041;1273;22500;-84
2023/03/01 02:47:30;;;;;;;;;;;;;;;-4.87;85.38;97691.21;109114;1269;23593;-84
2023/03/01 02:49:59;;;;;;;;;;;;;;;-4.84;85.61;97690.80;109094;1269;23140;-84
2023/03/01 02:52:43;;;;;;;;;;;;;;;-4.83;85.61;97687.69;109086;1274;22500;-84
2023/03/01 02:55:13;;;;;;;;;;;;;;;-4.86;85.51;97690.43;109050;1272;22571;-84
2023/03/01 02:57:43;;;;;;;;;;;;;;;-4.84;85.47;97694.51;109097;1274;22640;-84
2023/03/01 03:00:19;;;;;;;;;;;;;;;-4.81;85.50;97691.41;109144;1273;23652;-84
2023/03/01 03:02:48;;;;;;;;;;;;;;;-4.76;85.57;97687.80;109061;1272;23935;-84
2023/03/01 03:05:19;;;;;;;;;;;;;;;-4.79;85.53;97686.13;109108;1274;22544;-84
2023/03/01 03:07:48;;;;;;;;;;;;;;;-4.94;85.25;97684.66;109010;1272;116084;-84
2023/03/01 03:10:20;;;;;;;;;;;;;;;-5.08;85.62;97688.63;108907;1274;22476;-84
2023/03/01 03:12:51;;;;;;;;;;;;;;;-5.08;85.88;97691.92;109103;1273;22475;-85
2023/03/01 03:15:21;;;;;;;;;;;;;;;-5.04;86.18;97693.64;109081;1273;23439;-84
2023/03/01 03:17:51;;;;;;;;;;;;;;;-4.98;86.17;97693.56;109092;1269;22700;-84
2023/03/01 03:20:22;;;;;;;;;;;;;;;-4.93;86.16;97694.76;109065;1274;22582;-84
2023/03/01 03:22:53;;;;;;;;;;;;;;;-4.89;86.16;97689.36;109058;1267;24218;-84
2023/03/01 03:25:23;;;;;;;;;;;;;;;-4.88;86.35;97691.66;109083;1272;22496;-84
2023/03/01 03:27:56;;;;;;;;;;;;;;;-4.95;85.67;97695.98;109132;1274;23442;-84
2023/03/01 03:30:26;;;;;;;;;;;;;;;-4.98;85.49;97693.43;108894;1273;23823;-84
2023/03/01 03:32:56;;;;;;;;;;;;;;;-5.04;85.38;97692.09;109088;1274;32702;-84
2023/03/01 03:35:26;;;;;;;;;;;;;;;-5.04;85.37;97691.45;109113;1272;24353;-85
2023/03/01 03:38:05;;;;;;;;;;;;;;;-5.01;85.52;97698.17;109077;1267;23788;-84
2023/03/01 03:40:35;;;;;;;;;;;;;;;-5.01;85.46;97698.70;109081;1272;22486;-84
2023/03/01 03:43:05;;;;;;;;;;;;;;;-5.02;85.43;97700.53;109004;1274;53703;-84
2023/03/01 03:45:35;;;;;;;;;;;;;;;-5.04;85.49;97704.54;109124;1270;23939;-84
2023/03/01 03:48:05;;;;;;;;;;;;;;;-5.10;85.37;97706.91;109055;1273;23135;-84
2023/03/01 03:50:35;;;;;;;;;;;;;;;-5.10;85.39;97714.36;109022;1274;22524;-84
2023/03/01 03:53:06;;;;;;;;;;;;;;;-5.12;85.27;97715.39;109059;1273;25396;-84
2023/03/01 03:55:38;;;;;;;;;;;;;;;-5.13;85.37;97716.04;109102;1274;24184;-84
2023/03/01 03:58:09;;;;;;;;;;;;;;;-5.15;85.78;97713.02;109091;1266;25410;-83
2023/03/01 04:00:40;;;;;;;;;;;;;;;-5.22;85.65;97706.44;109109;1272;22558;-84
2023/03/01 04:03:10;;;;;;;;;;;;;;;-5.25;85.50;97703.84;109053;1274;22596;-84
2023/03/01 04:05:40;;;;;;;;;;;;;;;-5.37;85.24;97697.46;109113;1267;22546;-84
2023/03/01 04:08:09;;;;;;;;;;;;;;;-5.46;85.49;97691.30;109062;1272;22560;-84
2023/03/01 04:10:40;;;;;;;;;;;;;;;-5.49;85.92;97684.69;109114;1272;25191;-84
2023/03/01 04:13:12;;;;;;;;;;;;;;;-5.51;86.27;97689.38;109099;1274;22544;-84
2023/03/01 04:15:42;;;;;;;;;;;;;;;-5.52;86.26;97692.92;109066;1274;22841;-84
2023/03/01 04:18:13;;;;;;;;;;;;;;;-5.52;86.46;97696.12;109102;1267;25920;-84
2023/03/01 04:20:43;;;;;;;;;;;;;;;-5.48;86.50;97699.23;109098;1274;23647;-84
2023/03/01 04:23:15;;;;;;;;;;;;;;;-5.45;86.52;97700.27;109085;1269;23095;-85
2023/03/01 04:25:49;;;;;;;;;;;;;;;-5.45;86.33;97701.04;109132;1272;22556;-84
2023/03/01 04:28:18;;;;;;;;;;;;;;;-5.44;86.77;97700.39;109095;1272;23846;-85
2023/03/01 04:30:47;;;;;;;;;;;;;;;-5.43;86.80;97701.27;108853;1266;22533;-85
2023/03/01 04:33:17;;;;;;;;;;;;;;;-5.42;87.03;97701.37;109063;1271;23836;-84
2023/03/01 04:35:49;;;;;;;;;;;;;;;-5.40;86.99;97700.94;109050;1266;22511;-84
2023/03/01 04:38:18;;;;;;;;;;;;;;;-5.38;87.09;97702.36;108909;1272;23394;-84
2023/03/01 04:40:48;;;;;;;;;;;;;;;-5.39;87.23;97704.88;109114;1274;23271;-84
2023/03/01 04:43:17;;;;;;;;;;;;;;;-5.41;87.20;97705.22;109013;1272;22499;-84
2023/03/01 04:45:46;;;;;;;;;;;;;;;-5.42;87.49;97702.18;109060;1274;22483;-84
2023/03/01 04:48:17;;;;;;;;;;;;;;;-5.44;87.59;97701.94;109064;1273;23665;-84
2023/03/01 04:50:46;;;;;;;;;;;;;;;-5.52;87.11;97701.71;108890;1274;22488;-84
2023/03/01 04:53:16;;;;;;;;;;;;;;;-5.56;87.39;97702.59;108774;1274;22515;-84
2023/03/01 04:55:46;;;;;;;;;;;;;;;-5.52;87.43;97707.48;109047;1274;22871;-84
2023/03/01 04:58:15;;;;;;;;;;;;;;;-5.47;87.75;97701.89;108828;1274;23288;-85
2023/03/01 05:00:44;;;;;;;;;;;;;;;-5.44;87.90;97700.82;109115;1272;22720;-85
2023/03/01 05:03:18;;;;;;;;;;;;;;;-5.49;87.49;97702.55;109057;1274;23228;-85
2023/03/01 05:05:48;;;;;;;;;;;;;;;-5.55;87.57;97699.73;109107;1271;22493;-84
2023/03/01 05:08:18;;;;;;;;;;;;;;;-5.65;87.30;97691.77;109049;1266;22902;-85
2023/03/01 05:10:49;;;;;;;;;;;;;;;-5.73;87.25;97687.23;109045;1274;25872;-84
2023/03/01 05:13:21;;;;;;;;;;;;;;;-5.79;87.70;97689.84;109095;1274;22496;-85
2023/03/01 05:15:55;;;;;;;;;;;;;;;-5.77;87.62;97693.83;109060;1274;23679;-85
2023/03/01 05:18:26;;;;;;;;;;;;;;;-5.72;87.97;97687.27;109116;1272;22488;-85
2023/03/01 05:20:56;;;;;;;;;;;;;;;-5.61;88.25;97682.25;109116;1273;22597;-85
2023/03/01 05:23:25;;;;;;;;;;;;;;;-5.51;88.47;97676.41;109043;1274;22531;-85
2023/03/01 05:25:55;;;;;;;;;;;;;;;-5.46;88.57;97678.33;109099;1274;22496;-85
2023/03/01 05:28:24;;;;;;;;;;;;;;;-5.44;88.46;97682.77;109090;1274;22491;-85
2023/03/01 05:30:53;;;;;;;;;;;;;;;-5.42;88.24;97675.66;109105;1274;23212;-84
2023/03/01 05:33:23;;;;;;;;;;;;;;;-5.44;88.02;97678.98;108910;1269;24030;-85
2023/03/01 05:35:53;;;;;;;;;;;;;;;-5.47;88.08;97673.96;109054;1274;25392;-84
2023/03/01 05:38:23;;;;;;;;;;;;;;;-5.43;88.40;97678.73;108969;1274;22485;-85
2023/03/01 05:40:52;;;;;;;;;;;;;;;-5.42;88.47;97676.34;109072;1274;22505;-85
2023/03/01 05:43:21;;;;;;;;;;;;;;;-5.39;88.36;97675.42;109075;1274;22535;-84
2023/03/01 05:45:51;;;;;;;;;;;;;;;-5.15;88.74;97674.24;109074;1274;22492;-84
2023/03/01 05:48:20;;;;;;;;;;;;;;;-4.71;88.94;97665.46;109133;1274;22612;-84
2023/03/01 05:50:50;;;;;;;;;;;;;;;-4.16;88.96;97659.27;109109;1274;22512;-84
2023/03/01 05:53:20;;;;;;;;;;;;;;;-3.81;88.28;97656.39;109058;1267;26628;-84
2023/03/01 05:55:51;;;;;;;;;;;;;;;-3.40;87.75;97656.55;108956;1273;22511;-84
2023/03/01 05:58:21;;;;;;;;;;;;;;;-2.91;87.40;97651.59;108933;1267;25250;-84
2023/03/01 06:00:51;;;;;;;;;;;;;;;-2.22;87.51;97641.20;109129;1269;25288;-84
2023/03/01 06:03:20;;;;;;;;;;;;;;;-1.41;87.12;97640.57;109054;1269;23518;-83
2023/03/01 06:05:49;;;;;;;;;;;;;;;-0.86;85.14;97644.20;109085;1273;22506;-83
2023/03/01 06:08:20;;;;;;;;;;;;;;;-0.68;83.37;97643.07;109039;1274;24388;-83
2023/03/01 06:10:49;;;;;;;;;;;;;;;-0.13;83.32;97639.41;109078;1272;22494;-83
2023/03/01 06:13:18;;;;;;;;;;;;;;;0.50;82.47;97645.08;109072;1274;23667;-83
2023/03/01 06:15:47;;;;;;;;;;;;;;;1.16;82.06;97647.85;109062;1274;22510;-84
2023/03/01 06:18:17;;;;;;;;;;;;;;;1.70;80.42;97653.77;109063;1274;25291;-83
2023/03/01 06:20:47;;;;;;;;;;;;;;;1.96;78.47;97650.54;109098;1269;22522;-84
2023/03/01 06:23:16;;;;;;;;;;;;;;;2.19;76.96;97652.97;109072;1274;22513;-84
2023/03/01 06:25:46;;;;;;;;;;;;;;;2.45;76.73;97657.90;109076;1274;22494;-84
2023/03/01 06:28:15;;;;;;;;;;;;;;;2.96;76.66;97661.42;109081;1273;22579;-83
2023/03/01 06:30:45;;;;;;;;;;;;;;;3.35;75.65;97666.55;109080;1266;26022;-84
2023/03/01 06:33:15;;;;;;;;;;;;;;;3.89;75.77;97669.52;109089;1274;22494;-82
2023/03/01 06:35:44;;;;;;;;;;;;;;;4.37;74.14;97670.77;109064;1274;22511;-82
2023/03/01 06:38:17;;;;;;;;;;;;;;;4.69;73.26;97673.58;108907;1273;23694;-82
2023/03/01 06:40:52;;;;;;;;;;;;;;;4.80;70.77;97681.32;109096;1272;25211;-82
2023/03/01 06:43:21;;;;;;;;;;;;;;;4.89;69.98;97681.23;109067;1274;22632;-82
2023/03/01 06:45:51;;;;;;;;;;;;;;;4.95;69.05;97681.55;109072;1273;22819;-82
2023/03/01 06:48:20;;;;;;;;;;;;;;;5.18;68.69;97683.67;109088;1274;22517;-82
2023/03/01 06:50:50;;;;;;;;;;;;;;;5.28;66.23;97682.40;109083;1273;22556;-82
2023/03/01 06:53:19;;;;;;;;;;;;;;;5.54;66.44;97684.55;109017;1267;22515;-82
2023/03/01 06:55:48;;;;;;;;;;;;;;;5.95;66.47;97687.45;109079;1274;22542;-82
2023/03/01 06:58:18;;;;;;;;;;;;;;;6.68;66.83;97682.55;109086;1274;22492;-82
2023/03/01 07:00:47;;;;;;;;;;;;;;;7.67;66.63;97674.68;109064;1267;22487;-82
2023/03/01 07:03:16;;;;;;;;;;;;;;;8.54;65.50;97672.06;109046;1274;22524;-81
2023/03/01 07:05:46;;;;;;;;;;;;;;;9.51;64.85;97669.08;109032;1274;22514;-81
2023/03/01 07:08:15;;;;;;;;;;;;;;;10.44;63.09;97667.24;109076;1273;22800;-81
2023/03/01 07:10:44;;;;;;;;;;;;;;;11.14;61.80;97655.13;109108;1274;22511;-81
2023/03/01 07:13:14;;;;;;;;;;;;;;;11.62;59.82;97652.83;109070;1266;27443;-81
2023/03/01 07:15:43;;;;;;;;;;;;;;;12.12;59.40;97650.50;109074;1274;22499;-80
2023/03/01 07:18:13;;;;;;;;;;;;;;;12.62;58.08;97647.27;109097;1271;23023;-81
2023/03/01 07:20:42;;;;;;;;;;;;;;;13.09;57.17;97650.23;109106;1273;22496;-81
2023/03/01 07:23:11;;;;;;;;;;;;;;;13.65;56.98;97644.54;109070;1274;23789;-81
2023/03/01 07:25:41;;;;;;;;;;;;;;;14.31;55.99;97644.59;109056;1274;22612;-81
2023/03/01 07:28:10;;;;;;;;;;;;;;;14.80;54.56;97636.04;109043;1267;25396;-81
2023/03/01 07:30:40;;;;;;;;;;;;;;;14.94;53.04;97630.70;109101;1274;22511;-82
2023/03/01 07:33:09;;;;;;;;;;;;;;;14.96;52.12;97626.25;109029;1274;22485;-81
2023/03/01 07:35:39;;;;;;;;;;;;;;;15.00;51.17;97621.17;109090;1274;22450;-81
2023/03/01 07:38:09;;;;;;;;;;;;;;;15.05;49.94;97618.24;109077;1274;22799;-81
2023/03/01 07:40:38;;;;;;;;;;;;;;;14.52;49.01;97618.16;109080;1274;22496;-81
2023/03/01 07:43:08;;;;;;;;;;;;;;;14.39;48.33;97610.62;109010;1275;25615;-81
2023/03/01 07:45:38;;;;;;;;;;;;;;;14.12;48.31;97608.27;109057;1274;22561;-81
2023/03/01 07:48:07;;;;;;;;;;;;;;;14.52;49.01;97605.14;109083;1273;22531;-81
2023/03/01 07:50:37;;;;;;;;;;;;;;;15.48;48.78;97604.28;109041;1273;22567;-81
2023/03/01 07:53:07;;;;;;;;;;;;;;;16.10;47.43;97596.40;109051;1270;24104;-81
2023/03/01 07:55:37;;;;;;;;;;;;;;;16.09;47.02;97594.80;109065;1267;24251;-81
2023/03/01 07:58:06;;;;;;;;;;;;;;;16.00;44.11;97587.79;109101;1267;23271;-81
2023/03/01 08:00:36;;;;;;;;;;;;;;;14.95;45.01;97588.59;109105;1268;22490;-81
2023/03/01 08:03:05;;;;;;;;;;;;;;;15.32;44.71;97593.88;109092;1269;22640;-81
2023/03/01 08:05:35;;;;;;;;;;;;;;;15.50;44.43;97590.84;109067;1267;22440;-81
2023/03/01 08:08:05;;;;;;;;;;;;;;;15.52;43.31;97597.13;109087;1270;25496;-81
2023/03/01 08:10:34;;;;;;;;;;;;;;;15.63;44.07;97600.05;109101;1274;23039;-81
2023/03/01 08:13:04;;;;;;;;;;;;;;;15.71;42.73;97599.10;109071;1268;28919;-81
2023/03/01 08:15:33;;;;;;;;;;;;;;;15.65;42.99;97595.54;109084;1273;22591;-81
2023/03/01 08:18:02;;;;;;;;;;;;;;;15.66;41.56;97590.40;109110;1274;23664;-81
2023/03/01 08:20:32;;;;;;;;;;;;;;;14.66;40.92;97594.67;109059;1271;22622;-81
2023/03/01 08:23:01;;;;;;;;;;;;;;;14.38;41.28;97596.95;109085;1270;24946;-82
2023/03/01 08:25:31;;;;;;;;;;;;;;;14.07;41.10;97599.39;109028;1266;22518;-81
2023/03/01 08:28:00;;;;;;;;;;;;;;;14.21;40.80;97596.22;109064;1270;22488;-81
2023/03/01 08:30:30;;;;;;;;;;;;;;;13.14;38.72;97592.95;109058;1274;22938;-81
2023/03/01 08:32:59;;;;;;;;;;;;;;;11.86;40.73;97598.29;109050;1274;23908;-81
2023/03/01 08:35:29;;;;;;;;;;;;;;;12.55;42.47;97599.76;109044;1274;22493;-81
2023/03/01 08:37:58;;;;;;;;;;;;;;;13.54;41.78;97598.48;109074;1270;24220;-81
2023/03/01 08:40:28;;;;;;;;;;;;;;;14.04;41.50;97599.04;109068;1274;25387;-82
2023/03/01 08:42:58;;;;;;;;;;;;;;;14.46;41.40;97593.38;109051;1274;22503;-81
2023/03/01 08:45:28;;;;;;;;;;;;;;;14.52;40.94;97590.36;109144;1267;22548;-81
2023/03/01 08:47:58;;;;;;;;;;;;;;;14.58;40.61;97594.64;109076;1272;22514;-81
2023/03/01 08:50:27;;;;;;;;;;;;;;;14.53;40.09;97590.73;109067;1274;22514;-81
2023/03/01 08:52:57;;;;;;;;;;;;;;;14.35;40.27;97593.02;109087;1274;22572;-81
2023/03/01 08:55:26;;;;;;;;;;;;;;;14.71;41.17;97588.49;109076;1274;22485;-82
2023/03/01 08:57:58;;;;;;;;;;;;;;;14.29;37.25;97590.91;109094;1274;25247;-81
2023/03/01 09:00:28;;;;;;;;;;;;;;;12.59;37.05;97592.83;109061;1267;22493;-81
2023/03/01 09:02:58;;;;;;;;;;;;;;;11.02;37.99;97589.48;109086;1273;22506;-82
2023/03/01 09:05:28;;;;;;;;;;;;;;;9.48;39.05;97590.30;109087;1274;22545;-81
2023/03/01 09:07:59;;;;;;;;;;;;;;;8.13;40.98;97591.50;109062;1273;24122;-81
2023/03/01 09:10:29;;;;;;;;;;;;;;;7.26;42.38;97588.29;109101;1270;22498;-81
2023/03/01 09:12:58;;;;;;;;;;;;;;;6.99;43.71;97587.14;109114;1271;22488;-81
2023/03/01 09:15:28;;;;;;;;;;;;;;;6.87;43.67;97592.83;109056;1267;22572;-81
2023/03/01 09:17:57;;;;;;;;;;;;;;;6.33;44.85;97593.58;108879;1273;25323;-82
2023/03/01 09:20:28;;;;;;;;;;;;;;;5.89;46.03;97596.14;108881;1267;23838;-81
2023/03/01 09:22:57;;;;;;;;;;;;;;;5.96;47.48;97596.05;108889;1270;22622;-81
2023/03/01 09:25:28;;;;;;;;;;;;;;;6.33;48.12;97593.48;108872;1274;22585;-80
2023/03/01 09:27:57;;;;;;;;;;;;;;;6.45;47.53;97596.45;108838;1274;22906;-81
2023/03/01 09:30:27;;;;;;;;;;;;;;;6.07;46.80;97594.36;108834;1271;22669;-81
2023/03/01 09:32:57;;;;;;;;;;;;;;;5.63;47.62;97593.06;108831;1273;23735;-81
2023/03/01 09:35:27;;;;;;;;;;;;;;;5.70;48.68;97594.78;108858;1263;22519;-81
2023/03/01 09:37:57;;;;;;;;;;;;;;;5.88;48.58;97594.20;108893;1273;22601;-80
2023/03/01 09:40:29;;;;;;;;;;;;;;;5.80;48.45;97595.58;108851;1273;22484;-81
2023/03/01 09:43:02;;;;;;;;;;;;;;;5.44;48.06;97597.23;108845;1270;23933;-81
2023/03/01 09:45:34;;;;;;;;;;;;;;;4.95;48.68;97594.40;108848;1274;25382;-80
2023/03/01 09:48:04;;;;;;;;;;;;;;;4.75;49.21;97597.02;108863;1267;22766;-80
2023/03/01 09:50:36;;;;;;;;;;;;;;;4.78;50.08;97595.35;108891;1274;22500;-81
2023/03/01 09:53:07;;;;;;;;;;;;;;;4.96;50.34;97594.50;108840;1274;24167;-80
2023/03/01 09:55:40;;;;;;;;;;;;;;;4.80;50.64;97595.02;108863;1274;22513;-80
2023/03/01 09:58:25;;;;;;;;;;;;;;;4.62;50.41;97594.73;108864;1270;23705;-83
2023/03/01 10:00:57;;;;;;;;;;;;;;;4.49;51.04;97594.48;108866;1274;23785;-82
2023/03/01 10:03:28;;;;;;;;;;;;;;;4.72;51.76;97595.98;109066;1273;29197;-80
2023/03/01 10:06:01;;;;;;;;;;;;;;;5.04;51.49;97594.20;108859;1274;23214;-80
2023/03/01 10:08:41;;;;;;;;;;;;;;;4.93;50.40;97595.13;108824;1258;25296;-80
2023/03/01 10:11:19;;;;;;;;;;;;;;;4.69;50.73;97592.73;108854;1273;25927;-79
2023/03/01 10:13:53;;;;;;;;;;;;;;;4.42;51.12;97589.86;108868;1270;22484;-80
2023/03/01 10:16:25;;;;;;;;;;;;;;;4.58;51.93;97590.08;108893;1273;22504;-80
2023/03/01 10:18:58;;;;;;;;;;;;;;;4.97;51.05;97591.58;108868;1273;22491;-80
2023/03/01 10:21:29;;;;;;;;;;;;;;;5.08;51.83;97587.86;108881;1273;22499;-81
2023/03/01 10:24:04;;;;;;;;;;;;;;;5.40;51.70;97583.09;108845;1273;22569;-81
2023/03/01 10:26:44;;;;;;;;;;;;;;;5.44;50.58;97584.33;108882;1259;23908;-80
2023/03/01 10:29:14;;;;;;;;;;;;;;;5.55;50.94;97574.08;108894;1270;23734;-80
2023/03/01 10:31:45;;;;;;;;;;;;;;;5.66;50.97;97571.30;108867;1274;24273;-80
2023/03/01 10:34:17;;;;;;;;;;;;;;;5.80;51.22;97570.27;108858;1273;22499;-80
2023/03/01 10:36:49;;;;;;;;;;;;;;;5.99;51.30;97566.34;108851;1273;22565;-80
2023/03/01 10:39:19;;;;;;;;;;;;;;;6.01;50.68;97563.45;108925;1273;22496;-80
2023/03/01 10:41:55;;;;;;;;;;;;;;;5.95;50.65;97566.36;108913;1273;22492;-80
2023/03/01 10:44:50;;;;;;;;;;;;;;;5.72;49.80;97569.44;108865;1270;22508;-80
2023/03/01 10:47:21;;;;;;;;;;;;;;;5.45;51.01;97562.34;108633;1274;22496;-80
2023/03/01 10:49:55;;;;;;;;;;;;;;;5.60;51.96;97560.10;108928;1267;22488;-80
2023/03/01 10:52:28;;;;;;;;;;;;;;;5.91;51.84;97559.20;108861;1274;26638;-80
2023/03/01 10:54:59;;;;;;;;;;;;;;;6.16;50.93;97559.84;108964;1266;23903;-80
2023/03/01 10:57:37;;;;;;;;;;;;;;;6.07;50.83;97556.34;108914;1267;22500;-81
2023/03/01 11:00:24;;;;;;;;;;;;;;;6.20;51.69;97553.19;108892;1274;22499;-80
2023/03/01 11:03:04;;;;;;;;;;;;;;;6.31;51.31;97548.59;108889;1270;24327;-80
2023/03/01 11:05:34;;;;;;;;;;;;;;;6.42;51.59;97545.33;108883;1274;22486;-80
2023/03/01 11:08:04;;;;;;;;;;;;;;;6.51;51.32;97539.50;108849;1270;22496;-80
2023/03/01 11:10:35;;;;;;;;;;;;;;;6.53;50.73;97541.65;108861;1273;22501;-80
2023/03/01 11:13:16;;;;;;;;;;;;;;;6.31;50.75;97545.80;108878;1274;23816;-80
2023/03/01 11:15:59;;;;;;;;;;;;;;;6.27;50.10;97548.09;108856;1267;22651;-80
2023/03/01 11:18:30;;;;;;;;;;;;;;;5.90;50.48;97542.58;108833;1269;24335;-79
2023/03/01 11:21:00;;;;;;;;;;;;;;;5.76;50.72;97537.85;108882;1274;22499;-80
2023/03/01 11:23:32;;;;;;;;;;;;;;;5.43;51.34;97542.73;108904;1267;22594;-80
2023/03/01 11:26:04;;;;;;;;;;;;;;;5.39;51.93;97541.73;108889;1268;22550;-80
2023/03/01 11:28:33;;;;;;;;;;;;;;;5.58;52.48;97538.39;108852;1273;25425;-80
2023/03/01 11:31:05;;;;;;;;;;;;;;;5.70;50.96;97535.10;108866;1273;22582;-80
2023/03/01 11:33:42;;;;;;;;;;;;;;;5.50;51.87;97535.42;108814;1273;22695;-80
2023/03/01 11:36:16;;;;;;;;;;;;;;;5.77;52.45;97530.40;108921;1273;22597;-80
2023/03/01 11:38:46;;;;;;;;;;;;;;;6.02;52.52;97528.36;108899;1269;22580;-80
2023/03/01 11:41:18;;;;;;;;;;;;;;;6.23;52.38;97523.08;108874;1269;22559;-80
2023/03/01 11:43:52;;;;;;;;;;;;;;;6.13;50.06;97521.90;108872;1274;22877;-80
2023/03/01 11:46:50;;;;;;;;;;;;;;;5.72;50.23;97525.33;108884;1266;22496;-80
2023/03/01 11:49:42;;;;;;;;;;;;;;;5.37;50.27;97526.93;108841;1273;25259;-80
2023/03/01 11:52:14;;;;;;;;;;;;;;;5.25;51.67;97527.05;108759;1270;24194;-80
2023/03/01 11:54:48;;;;;;;;;;;;;;;5.56;52.38;97522.36;108891;1272;22506;-80
2023/03/01 11:57:21;;;;;;;;;;;;;;;5.86;52.13;97516.75;108881;1273;25348;-80
2023/03/01 12:00:00;;;;;;;;;;;;;;;6.09;51.68;97517.06;108899;1254;22603;-80
2023/03/01 12:02:41;;;;;;;;;;;;;;;6.23;51.48;97515.82;108885;1273;23718;-80
2023/03/01 12:05:27;;;;;;;;;;;;;;;6.37;51.22;97512.96;108874;1273;22493;-80
2023/03/01 12:08:02;;;;;;;;;;;;;;;6.47;51.16;97508.37;108868;1273;23980;-80
2023/03/01 12:10:37;;;;;;;;;;;;;;;6.45;51.15;97505.77;108867;1267;22497;-80
2023/03/01 12:13:20;;;;;;;;;;;;;;;6.53;51.09;97501.98;109089;1273;26689;-80
2023/03/01 12:15:56;;;;;;;;;;;;;;;6.63;50.99;97499.02;108826;1274;24486;-80
2023/03/01 12:18:38;;;;;;;;;;;;;;;6.69;50.46;97497.88;109068;1273;25268;-81
2023/03/01 12:21:15;;;;;;;;;;;;;;;6.59;50.94;97494.86;109111;1273;22510;-81
2023/03/01 12:23:54;;;;;;;;;;;;;;;6.67;50.69;97487.63;109066;1274;25243;-81
2023/03/01 12:26:28;;;;;;;;;;;;;;;6.56;49.81;97487.10;109079;1274;22495;-81
2023/03/01 12:29:11;;;;;;;;;;;;;;;6.43;50.82;97485.20;109087;1267;22524;-81
2023/03/01 12:31:59;;;;;;;;;;;;;;;6.52;51.26;97480.25;109032;1272;57234;-82
2023/03/01 12:34:39;;;;;;;;;;;;;;;6.62;51.05;97477.66;109072;1274;23124;-81
2023/03/01 12:37:23;;;;;;;;;;;;;;;6.73;51.41;97477.01;109103;1273;22508;-81
2023/03/01 12:39:57;;;;;;;;;;;;;;;6.78;51.21;97476.84;109116;1270;23997;-81
2023/03/01 12:42:31;;;;;;;;;;;;;;;6.70;50.20;97476.46;109110;1274;22486;-81
2023/03/01 12:45:13;;;;;;;;;;;;;;;6.59;49.92;97478.17;109052;1273;22502;-81
2023/03/01 12:47:49;;;;;;;;;;;;;;;6.55;50.70;97474.71;109079;1267;23763;-81
2023/03/01 12:50:21;;;;;;;;;;;;;;;6.69;50.84;97473.11;109106;1274;22477;-81
2023/03/01 12:52:51;;;;;;;;;;;;;;;6.78;50.74;97475.73;109065;1273;22505;-81
2023/03/01 12:55:29;;;;;;;;;;;;;;;6.82;50.57;97473.55;109119;1274;22519;-81
2023/03/01 12:58:03;;;;;;;;;;;;;;;6.87;50.64;97471.21;109081;1273;22513;-81
2023/03/01 13:00:37;;;;;;;;;;;;;;;6.90;50.74;97467.58;109061;1272;22526;-81
2023/03/01 13:03:13;;;;;;;;;;;;;;;6.96;50.75;97466.23;109063;1273;40887;-80